Time;durP1;ratioP1;P1;durP2;ratioP2;P2;SDS_P1;SDS_P2;PMS_P1;PMS_P2;Temp;Humidity;BMP_temperature;BMP_pressure;BME280_temperature;BME280_humidity;BME280_pressure;Samples;Min_cycle;Max_cycle;Signal;HPM_P1;HPM_P2
2021/12/30 00:01:17;;;;;;;2.53;0.70;;;26.50;99.90;;;;;;5010832;28;20271;-72
2021/12/30 00:03:47;;;;;;;2.97;0.70;;;26.80;99.90;;;;;;5012377;28;20264;-72
2021/12/30 00:06:22;;;;;;;3.30;0.50;;;27.30;99.90;;;;;;5012205;28;20316;-73
2021/12/30 00:08:52;;;;;;;1.80;0.33;;;27.20;99.90;;;;;;4996168;28;20193;-72
2021/12/30 00:11:21;;;;;;;2.60;0.50;;;27.50;99.90;;;;;;5007612;28;20264;-72
2021/12/30 00:13:49;;;;;;;2.60;0.53;;;27.10;99.90;;;;;;5011989;28;20193;-71
2021/12/30 00:16:18;;;;;;;2.57;0.50;;;27.00;99.90;;;;;;5012248;28;20174;-71
2021/12/30 00:18:47;;;;;;;5.00;0.60;;;27.60;99.90;;;;;;5011432;28;20239;-70
2021/12/30 00:21:15;;;;;;;2.10;0.60;;;27.40;99.90;;;;;;5012189;28;20179;-71
2021/12/30 00:23:44;;;;;;;2.53;0.70;;;27.50;99.90;;;;;;5012173;28;20178;-72
2021/12/30 00:26:11;;;;;;;1.17;0.53;;;27.10;99.90;;;;;;5004165;28;20193;-71
2021/12/30 00:28:39;;;;;;;2.17;0.60;;;27.50;99.90;;;;;;5007483;28;20198;-71
2021/12/30 00:31:07;;;;;;;2.67;0.60;;;27.90;99.90;;;;;;5027094;28;20240;-71
2021/12/30 00:33:36;;;;;;;2.57;0.70;;;28.00;99.90;;;;;;5017443;28;20182;-71
2021/12/30 00:36:08;;;;;;;2.07;0.53;;;27.90;99.90;;;;;;5011892;28;20196;-71
2021/12/30 00:38:41;;;;;;;2.03;0.50;;;27.00;99.90;;;;;;5012281;28;20702;-68
2021/12/30 00:41:10;;;;;;;3.00;0.93;;;27.20;99.90;;;;;;5000696;28;20224;-71
2021/12/30 00:43:38;;;;;;;3.30;0.70;;;27.30;99.90;;;;;;4993490;28;20281;-72
2021/12/30 00:46:07;;;;;;;3.40;0.60;;;27.20;99.90;;;;;;4992183;28;20272;-69
2021/12/30 00:48:35;;;;;;;1.80;0.60;;;27.50;99.90;;;;;;4992094;28;20245;-71
2021/12/30 00:51:04;;;;;;;7.17;0.87;;;27.60;99.90;;;;;;5005861;28;20301;-71
2021/12/30 00:53:32;;;;;;;3.10;1.00;;;28.00;99.90;;;;;;4992505;28;20190;-72
2021/12/30 00:56:00;;;;;;;2.00;0.47;;;28.10;99.90;;;;;;4992103;28;20181;-71
2021/12/30 00:58:28;;;;;;;2.03;0.60;;;27.70;99.90;;;;;;4992193;28;20640;-73
2021/12/30 01:00:59;;;;;;;4.37;0.63;;;27.80;99.90;;;;;;4987901;28;20664;-71
2021/12/30 01:03:28;;;;;;;4.70;0.80;;;28.50;99.90;;;;;;5008876;28;20572;-71
2021/12/30 01:08:41;;;;;;;1.20;0.40;;;28.50;99.90;;;;;;5010999;28;20224;-71
2021/12/30 01:11:10;;;;;;;2.03;0.50;;;28.30;99.90;;;;;;4997528;28;20205;-70
2021/12/30 01:13:42;;;;;;;2.83;0.60;;;28.80;99.90;;;;;;5007591;28;20177;-71
2021/12/30 01:16:18;;;;;;;4.00;0.80;;;28.90;99.90;;;;;;5026675;28;20227;-71
2021/12/30 01:19:14;;;;;;;1.13;0.50;;;29.10;99.90;;;;;;4993931;28;20635;-72
2021/12/30 01:21:43;;;;;;;1.70;0.70;;;29.10;99.90;;;;;;4996876;28;20183;-71
2021/12/30 01:24:14;;;;;;;1.23;0.50;;;29.20;99.90;;;;;;5002666;28;20570;-70
2021/12/30 01:26:42;;;;;;;2.40;0.40;;;29.30;99.90;;;;;;4992080;28;20187;-73
2021/12/30 01:29:10;;;;;;;8.23;1.03;;;29.50;99.90;;;;;;4992283;28;20743;-71
2021/12/30 01:31:38;;;;;;;4.77;0.80;;;28.60;99.90;;;;;;4991754;28;20238;-69
2021/12/30 01:34:05;;;;;;;2.10;0.67;;;27.80;99.90;;;;;;4974413;28;20179;-72
2021/12/30 01:36:33;;;;;;;5.77;0.93;;;27.10;99.90;;;;;;4991853;28;20171;-71
2021/12/30 01:39:01;;;;;;;4.57;0.80;;;26.80;99.90;;;;;;4991999;28;20677;-72
2021/12/30 01:41:29;;;;;;;1.77;0.53;;;27.40;99.90;;;;;;5008247;28;20196;-70
2021/12/30 01:43:57;;;;;;;5.87;1.13;;;27.30;99.90;;;;;;5011765;28;20553;-72
2021/12/30 01:46:25;;;;;;;4.70;1.00;;;28.10;99.90;;;;;;5011440;28;20182;-71
2021/12/30 01:48:52;;;;;;;3.23;0.60;;;29.00;99.90;;;;;;4994678;28;20199;-71
2021/12/30 01:51:20;;;;;;;1.97;0.50;;;29.30;99.90;;;;;;5009208;28;20589;-72
2021/12/30 01:53:48;;;;;;;4.40;0.87;;;29.30;99.90;;;;;;5011517;28;20174;-72
2021/12/30 01:56:16;;;;;;;1.17;0.40;;;29.80;99.90;;;;;;5011575;28;20190;-72
2021/12/30 01:58:43;;;;;;;0.93;0.40;;;30.10;99.90;;;;;;4992138;28;20197;-71
2021/12/30 02:01:11;;;;;;;2.67;0.50;;;29.50;99.90;;;;;;4997278;28;20683;-73
2021/12/30 02:03:39;;;;;;;1.13;0.50;;;30.70;99.90;;;;;;4979772;28;20183;-71
2021/12/30 02:06:07;;;;;;;1.63;0.60;;;30.50;99.90;;;;;;4996872;28;20185;-72
2021/12/30 02:08:34;;;;;;;1.77;0.50;;;30.10;99.90;;;;;;4996758;28;20190;-72
2021/12/30 02:11:02;;;;;;;4.35;0.30;;;30.60;99.90;;;;;;5010704;28;20218;-72
2021/12/30 02:13:30;;;;;;;2.63;0.40;;;31.50;99.90;;;;;;5016423;28;20178;-71
2021/12/30 02:16:02;;;;;;;1.57;0.57;;;31.50;99.90;;;;;;5005984;28;20183;-71
2021/12/30 02:18:30;;;;;;;0.73;0.33;;;30.50;99.90;;;;;;4996440;28;20198;-72
2021/12/30 02:21:02;;;;;;;2.13;0.47;;;29.80;99.90;;;;;;4997825;28;20588;-72
2021/12/30 02:23:36;;;;;;;1.43;0.50;;;29.20;99.90;;;;;;4996320;28;20552;-74
2021/12/30 02:26:10;;;;;;;1.47;0.50;;;28.50;99.90;;;;;;5000625;28;20257;-72
2021/12/30 02:28:38;;;;;;;2.83;0.50;;;28.50;99.90;;;;;;4998460;28;20225;-72
2021/12/30 02:31:13;;;;;;;1.80;0.60;;;28.40;99.90;;;;;;5000792;28;20266;-72
2021/12/30 02:33:42;;;;;;;1.03;0.40;;;28.10;99.90;;;;;;5003199;28;20185;-72
2021/12/30 02:36:11;;;;;;;1.67;0.63;;;28.10;99.90;;;;;;5016068;28;20233;-72
2021/12/30 02:38:44;;;;;;;1.00;0.33;;;29.00;99.90;;;;;;4983503;28;20178;-71
2021/12/30 02:41:16;;;;;;;0.90;0.50;;;29.20;99.90;;;;;;5002383;28;20232;-72
2021/12/30 02:43:49;;;;;;;2.40;0.43;;;28.80;99.90;;;;;;5006216;28;20190;-71
2021/12/30 02:46:22;;;;;;;3.23;0.43;;;29.40;99.90;;;;;;4995336;28;20214;-71
2021/12/30 02:48:52;;;;;;;2.33;0.57;;;30.20;99.90;;;;;;4977852;28;20178;-72
2021/12/30 02:51:21;;;;;;;2.23;0.37;;;29.90;99.90;;;;;;4978048;28;20226;-72
2021/12/30 02:53:49;;;;;;;3.23;0.40;;;30.00;99.90;;;;;;4995539;28;20539;-72
2021/12/30 02:56:17;;;;;;;0.77;0.30;;;30.60;99.90;;;;;;4978135;28;20182;-73
2021/12/30 02:58:45;;;;;;;4.20;0.63;;;31.10;99.90;;;;;;4994291;28;20214;-70
2021/12/30 03:01:21;;;;;;;2.23;0.40;;;31.00;99.90;;;;;;4995613;28;20171;-72
2021/12/30 03:03:50;;;;;;;2.47;0.30;;;31.20;99.90;;;;;;4995638;28;20662;-71
2021/12/30 03:06:18;;;;;;;1.60;0.33;;;31.20;99.90;;;;;;4994503;28;20183;-71
2021/12/30 03:08:48;;;;;;;0.93;0.27;;;30.50;99.90;;;;;;4995534;28;20233;-72
2021/12/30 03:11:16;;;;;;;3.83;0.60;;;30.20;99.90;;;;;;4995597;28;20262;-71
2021/12/30 03:13:45;;;;;;;2.20;0.83;;;30.00;99.90;;;;;;4994696;28;20202;-71
2021/12/30 03:16:23;;;;;;;0.93;0.50;;;29.80;99.90;;;;;;4995519;28;20231;-71
2021/12/30 03:18:52;;;;;;;1.40;0.30;;;29.30;99.90;;;;;;4995262;28;20257;-72
2021/12/30 03:24:08;;;;;;;0.83;0.30;;;28.80;99.90;;;;;;4996164;28;20215;-71
2021/12/30 03:26:36;;;;;;;2.63;0.53;;;28.60;99.90;;;;;;5012793;28;20174;-72
2021/12/30 03:29:05;;;;;;;1.00;0.40;;;28.40;99.90;;;;;;5020217;28;20159;-72
2021/12/30 03:31:33;;;;;;;2.63;0.63;;;28.40;99.90;;;;;;5004048;28;20230;-72
2021/12/30 03:34:01;;;;;;;3.97;0.80;;;28.30;99.90;;;;;;4995846;28;20290;-72
2021/12/30 03:36:28;;;;;;;3.93;0.50;;;28.20;99.90;;;;;;4977767;28;20194;-72
2021/12/30 03:39:01;;;;;;;1.70;0.70;;;28.10;99.90;;;;;;4994968;28;20699;-72
2021/12/30 03:41:30;;;;;;;1.83;0.60;;;28.90;99.90;;;;;;4995028;28;20182;-71
2021/12/30 03:44:00;;;;;;;1.10;0.53;;;29.20;99.90;;;;;;4995250;28;20217;-71
2021/12/30 03:46:30;;;;;;;3.17;0.50;;;29.40;99.90;;;;;;4995202;28;20182;-71
2021/12/30 03:48:58;;;;;;;3.53;0.60;;;28.80;99.90;;;;;;4994902;28;20179;-72
2021/12/30 03:51:26;;;;;;;2.40;0.40;;;28.40;99.90;;;;;;4994647;28;20214;-72
2021/12/30 03:53:58;;;;;;;1.70;0.70;;;28.30;99.90;;;;;;4977344;28;20633;-72
2021/12/30 03:59:15;;;;;;;4.03;0.60;;;28.10;99.90;;;;;;4995025;28;20232;-71
2021/12/30 04:01:43;;;;;;;2.57;0.50;;;28.30;99.90;;;;;;4994663;28;20637;-71
2021/12/30 04:04:11;;;;;;;1.53;0.57;;;28.60;99.90;;;;;;4977078;28;20273;-71
2021/12/30 04:06:38;;;;;;;2.03;0.70;;;29.30;99.90;;;;;;4994591;28;20209;-71
2021/12/30 04:09:07;;;;;;;4.67;0.60;;;29.90;99.90;;;;;;4994469;28;20186;-71
2021/12/30 04:11:37;;;;;;;4.50;0.50;;;29.90;99.90;;;;;;4977020;28;20222;-71
2021/12/30 04:14:05;;;;;;;3.53;0.93;;;30.20;99.90;;;;;;4994574;28;20174;-71
2021/12/30 04:16:35;;;;;;;2.27;0.90;;;30.80;99.90;;;;;;4994503;28;20696;-71
2021/12/30 04:19:04;;;;;;;3.77;0.90;;;31.40;99.90;;;;;;4994517;28;20610;-71
2021/12/30 04:21:32;;;;;;;4.33;0.90;;;30.90;99.90;;;;;;4977102;28;20245;-71
2021/12/30 04:24:00;;;;;;;3.10;0.90;;;31.10;99.90;;;;;;4994159;28;20207;-73
2021/12/30 04:26:28;;;;;;;2.60;0.80;;;31.40;99.90;;;;;;4994367;28;20213;-71
2021/12/30 04:28:56;;;;;;;1.23;0.50;;;30.20;99.90;;;;;;4994102;28;20253;-72
2021/12/30 04:31:26;;;;;;;1.03;0.40;;;30.60;99.90;;;;;;4993781;28;20230;-72
2021/12/30 04:33:54;;;;;;;2.50;0.63;;;31.20;99.90;;;;;;4994586;28;20185;-72
2021/12/30 04:36:21;;;;;;;5.57;0.70;;;30.60;99.90;;;;;;4993973;28;20220;-72
2021/12/30 04:38:49;;;;;;;1.60;0.63;;;30.60;99.90;;;;;;4994034;28;20218;-71
2021/12/30 04:41:17;;;;;;;2.47;0.67;;;30.30;99.90;;;;;;4994061;28;20186;-72
2021/12/30 04:43:44;;;;;;;1.63;0.50;;;30.30;99.90;;;;;;4994008;28;20194;-71
2021/12/30 04:46:13;;;;;;;7.07;0.60;;;30.10;99.90;;;;;;4994690;28;20621;-71
2021/12/30 04:48:40;;;;;;;1.00;0.53;;;29.90;99.90;;;;;;4994171;28;20232;-71
2021/12/30 04:51:08;;;;;;;1.70;0.37;;;29.40;99.90;;;;;;4976349;28;20218;-72
2021/12/30 04:53:36;;;;;;;3.13;0.50;;;29.90;99.90;;;;;;4994304;28;20182;-72
2021/12/30 04:56:04;;;;;;;1.90;0.60;;;29.60;99.90;;;;;;4994088;28;20186;-72
2021/12/30 04:58:32;;;;;;;3.00;0.70;;;29.90;99.90;;;;;;4993962;28;20175;-72
2021/12/30 05:01:00;;;;;;;1.33;0.50;;;29.80;99.90;;;;;;4994135;28;20178;-73
2021/12/30 05:03:28;;;;;;;1.90;0.53;;;29.90;99.90;;;;;;4976721;28;20206;-71
2021/12/30 05:05:58;;;;;;;1.07;0.30;;;30.10;99.90;;;;;;4993977;28;20183;-71
2021/12/30 05:08:27;;;;;;;3.30;0.37;;;30.00;99.90;;;;;;4993908;28;20178;-71
2021/12/30 05:10:54;;;;;;;1.47;0.40;;;29.60;99.90;;;;;;4993781;28;20214;-71
2021/12/30 05:13:22;;;;;;;2.33;0.77;;;29.90;99.90;;;;;;4993802;28;20229;-71
2021/12/30 05:15:51;;;;;;;2.20;0.80;;;29.90;99.90;;;;;;4993943;28;20175;-72
2021/12/30 05:18:20;;;;;;;1.23;0.40;;;29.70;99.90;;;;;;4993720;28;20186;-72
2021/12/30 05:20:48;;;;;;;7.13;0.90;;;30.00;99.90;;;;;;4993768;28;20191;-72
2021/12/30 05:23:16;;;;;;;2.17;0.70;;;30.40;99.90;;;;;;4993767;28;20171;-72
2021/12/30 05:25:43;;;;;;;2.07;0.53;;;30.00;99.90;;;;;;4993713;28;20171;-72
2021/12/30 05:28:11;;;;;;;3.07;0.60;;;30.10;99.90;;;;;;4976061;28;20603;-71
2021/12/30 05:30:43;;;;;;;2.20;0.50;;;30.60;99.90;;;;;;4993147;28;20325;-72
2021/12/30 05:33:10;;;;;;;0.40;0.30;;;31.00;99.90;;;;;;4993713;28;20171;-72
2021/12/30 05:35:38;;;;;;;3.93;0.60;;;30.30;99.90;;;;;;4994310;28;20179;-71
2021/12/30 05:38:07;;;;;;;2.83;0.40;;;29.70;99.90;;;;;;4996965;28;20183;-71
2021/12/30 05:40:35;;;;;;;2.93;0.50;;;29.50;99.90;;;;;;4997289;28;20178;-71
2021/12/30 05:43:04;;;;;;;1.23;0.43;;;29.60;99.90;;;;;;4997039;28;20184;-72
2021/12/30 05:45:31;;;;;;;2.53;0.47;;;29.90;99.90;;;;;;4996990;28;20174;-72
2021/12/30 05:47:59;;;;;;;1.67;0.47;;;29.40;99.90;;;;;;4996821;28;20262;-72
2021/12/30 05:50:31;;;;;;;1.03;0.40;;;29.00;99.90;;;;;;4996830;28;20217;-72
2021/12/30 05:52:59;;;;;;;5.03;0.60;;;28.20;99.90;;;;;;4996996;28;20265;-71
2021/12/30 05:55:28;;;;;;;2.10;0.30;;;28.30;99.90;;;;;;4997047;28;20186;-72
2021/12/30 05:57:57;;;;;;;1.53;0.40;;;29.30;99.90;;;;;;4996911;28;20277;-71
2021/12/30 06:00:27;;;;;;;3.07;0.80;;;29.30;99.90;;;;;;4979474;28;20522;-72
2021/12/30 06:02:55;;;;;;;1.37;0.43;;;29.10;99.90;;;;;;4996716;28;20195;-71
2021/12/30 06:05:23;;;;;;;1.40;0.50;;;29.30;99.90;;;;;;4996866;28;20174;-71
2021/12/30 06:07:51;;;;;;;2.13;0.63;;;29.40;99.90;;;;;;4996309;28;20290;-71
2021/12/30 06:10:19;;;;;;;5.90;0.73;;;29.10;99.90;;;;;;4996272;28;20261;-71
2021/12/30 06:12:47;;;;;;;2.43;0.47;;;28.70;99.90;;;;;;4996300;28;20197;-71
2021/12/30 06:15:16;;;;;;;2.77;0.60;;;28.00;99.90;;;;;;4996457;28;20530;-71
2021/12/30 06:17:43;;;;;;;2.40;0.60;;;27.90;99.90;;;;;;4996589;28;20659;-71
2021/12/30 06:20:14;;;;;;;1.50;0.40;;;28.60;99.90;;;;;;4996268;28;20198;-71
2021/12/30 06:22:46;;;;;;;2.00;0.43;;;28.40;99.90;;;;;;4996749;28;20711;-71
2021/12/30 06:25:14;;;;;;;2.93;0.70;;;28.30;99.90;;;;;;4996298;28;20179;-71
2021/12/30 06:27:42;;;;;;;0.93;0.30;;;28.40;99.90;;;;;;4996207;28;20202;-71
2021/12/30 06:30:11;;;;;;;2.00;0.50;;;28.30;99.90;;;;;;4995843;28;20289;-71
2021/12/30 06:32:39;;;;;;;1.80;0.43;;;28.30;99.90;;;;;;4996292;28;20175;-71
2021/12/30 06:35:08;;;;;;;1.47;0.50;;;28.30;99.90;;;;;;4996214;28;20182;-71
2021/12/30 06:37:40;;;;;;;6.60;0.90;;;28.30;99.90;;;;;;4996023;28;20178;-71
2021/12/30 06:40:10;;;;;;;2.50;0.60;;;28.40;99.90;;;;;;4996040;28;20171;-72
2021/12/30 06:42:38;;;;;;;0.80;0.40;;;28.50;99.90;;;;;;4996034;28;20182;-71
2021/12/30 06:45:06;;;;;;;3.23;0.50;;;28.50;99.90;;;;;;4996035;28;20548;-72
2021/12/30 06:47:34;;;;;;;1.70;0.50;;;28.20;99.90;;;;;;4994715;28;20175;-71
2021/12/30 06:50:02;;;;;;;1.03;0.40;;;28.20;99.90;;;;;;4995516;28;20206;-72
2021/12/30 06:52:31;;;;;;;0.70;0.40;;;28.10;99.90;;;;;;4995815;28;20273;-72
2021/12/30 06:54:59;;;;;;;2.10;0.43;;;28.20;99.90;;;;;;4995642;28;20509;-71
2021/12/30 06:57:28;;;;;;;5.77;0.70;;;28.40;99.90;;;;;;4995790;28;20187;-71
2021/12/30 06:59:56;;;;;;;1.50;0.63;;;28.50;99.90;;;;;;4995499;28;20190;-71
2021/12/30 07:02:25;;;;;;;1.67;0.50;;;28.30;99.90;;;;;;4995543;28;20179;-72
2021/12/30 07:04:52;;;;;;;1.03;0.40;;;28.30;99.90;;;;;;4995461;28;20183;-72
2021/12/30 07:07:20;;;;;;;0.27;0.20;;;27.90;99.90;;;;;;4995428;28;20625;-72
2021/12/30 07:09:48;;;;;;;3.80;0.50;;;27.90;99.90;;;;;;4995074;28;20206;-72
2021/12/30 07:12:15;;;;;;;2.77;0.50;;;28.10;99.90;;;;;;4995343;28;20182;-71
2021/12/30 07:14:44;;;;;;;0.80;0.50;;;27.70;99.90;;;;;;4995381;28;20187;-72
2021/12/30 07:17:11;;;;;;;2.87;0.50;;;27.60;99.90;;;;;;4995242;28;20175;-71
2021/12/30 07:19:39;;;;;;;3.13;0.63;;;27.30;99.90;;;;;;4995261;28;20535;-71
2021/12/30 07:22:07;;;;;;;3.37;0.60;;;27.30;99.90;;;;;;4995216;28;20189;-71
2021/12/30 07:24:34;;;;;;;0.80;0.30;;;27.40;99.90;;;;;;4995283;28;20182;-71
2021/12/30 07:27:02;;;;;;;3.07;0.73;;;27.30;99.90;;;;;;4996107;28;20183;-72
2021/12/30 07:29:30;;;;;;;1.97;0.43;;;27.20;99.90;;;;;;4977298;28;20182;-71
2021/12/30 07:31:58;;;;;;;3.00;0.50;;;27.20;99.90;;;;;;4994914;28;20657;-72
2021/12/30 07:34:25;;;;;;;4.47;0.70;;;27.20;99.90;;;;;;4995008;28;20181;-72
2021/12/30 07:36:53;;;;;;;0.80;0.50;;;27.30;99.90;;;;;;4994978;28;20236;-72
2021/12/30 07:39:21;;;;;;;2.70;0.57;;;27.20;99.90;;;;;;4995028;28;20629;-71
2021/12/30 07:41:48;;;;;;;2.47;0.60;;;27.20;99.90;;;;;;4977255;28;20186;-72
2021/12/30 07:44:16;;;;;;;0.93;0.40;;;27.30;99.90;;;;;;4994946;28;20184;-72
2021/12/30 07:46:45;;;;;;;1.63;0.40;;;27.40;99.90;;;;;;4994453;28;20589;-72
2021/12/30 07:49:12;;;;;;;1.87;0.50;;;27.60;99.90;;;;;;4994649;28;20178;-72
2021/12/30 07:51:40;;;;;;;3.03;0.40;;;27.40;99.90;;;;;;4994343;28;20211;-72
2021/12/30 07:54:08;;;;;;;1.47;0.67;;;27.30;99.90;;;;;;4994787;28;20175;-72
2021/12/30 07:56:35;;;;;;;1.57;0.33;;;27.50;99.90;;;;;;4994496;28;20179;-72
2021/12/30 07:59:03;;;;;;;0.90;0.33;;;27.70;99.90;;;;;;4976821;28;20178;-72
2021/12/30 08:01:31;;;;;;;1.33;0.50;;;27.40;99.90;;;;;;4994471;28;20687;-72
2021/12/30 08:03:59;;;;;;;1.97;0.60;;;27.10;99.90;;;;;;4994656;28;20221;-73
2021/12/30 08:06:28;;;;;;;2.07;0.50;;;26.90;99.90;;;;;;4994500;28;20648;-72
2021/12/30 08:08:56;;;;;;;1.03;0.33;;;27.00;99.90;;;;;;4994236;28;20225;-72
2021/12/30 08:11:24;;;;;;;2.43;0.50;;;26.80;99.90;;;;;;4994057;28;20237;-72
2021/12/30 08:13:52;;;;;;;2.27;0.47;;;26.60;99.90;;;;;;4994227;28;20171;-72
2021/12/30 08:16:20;;;;;;;1.57;0.47;;;26.60;99.90;;;;;;4994259;28;20261;-72
2021/12/30 08:18:47;;;;;;;1.10;0.60;;;26.50;99.90;;;;;;4994825;28;20171;-72
2021/12/30 08:21:15;;;;;;;2.27;0.50;;;26.80;99.90;;;;;;5012221;28;20162;-72
2021/12/30 08:23:43;;;;;;;2.77;0.60;;;26.50;99.90;;;;;;5018630;28;20191;-72
2021/12/30 08:26:11;;;;;;;1.00;0.57;;;26.10;99.90;;;;;;5006033;28;20198;-71
2021/12/30 08:28:38;;;;;;;2.33;0.47;;;25.80;99.90;;;;;;4995342;28;20190;-71
2021/12/30 08:31:07;;;;;;;0.83;0.43;;;25.40;99.90;;;;;;4994355;28;20229;-72
2021/12/30 08:33:34;;;;;;;2.70;0.70;;;25.20;99.90;;;;;;4994723;28;20170;-72
2021/12/30 08:36:02;;;;;;;2.93;0.90;;;25.20;99.90;;;;;;4994177;28;20266;-71
2021/12/30 08:38:30;;;;;;;5.30;0.60;;;25.00;99.90;;;;;;4994095;28;20559;-71
2021/12/30 08:40:58;;;;;;;1.13;0.50;;;25.00;99.90;;;;;;4994278;28;20178;-72
2021/12/30 08:43:27;;;;;;;3.17;0.53;;;24.80;99.90;;;;;;4994111;28;20170;-72
2021/12/30 08:45:55;;;;;;;4.17;0.70;;;24.60;99.90;;;;;;4994095;28;20179;-72
2021/12/30 08:48:23;;;;;;;2.10;0.53;;;24.50;99.90;;;;;;4993814;28;20174;-72
2021/12/30 08:50:51;;;;;;;3.47;0.70;;;24.40;99.90;;;;;;4993930;28;20210;-71
2021/12/30 08:53:22;;;;;;;1.50;0.50;;;24.30;99.90;;;;;;4994012;28;20189;-72
2021/12/30 08:55:49;;;;;;;1.50;0.80;;;24.30;99.90;;;;;;4994394;28;20175;-72
2021/12/30 08:58:17;;;;;;;0.60;0.40;;;24.10;99.90;;;;;;4993993;28;20180;-71
2021/12/30 09:00:47;;;;;;;1.67;0.53;;;24.00;99.90;;;;;;4993903;28;20186;-72
2021/12/30 09:03:18;;;;;;;4.33;0.70;;;23.80;99.90;;;;;;4993768;28;20204;-73
2021/12/30 09:05:46;;;;;;;2.27;0.60;;;23.70;99.90;;;;;;4994037;28;20178;-72
2021/12/30 09:08:14;;;;;;;3.20;0.90;;;23.70;99.90;;;;;;4993881;28;20171;-72
2021/12/30 09:10:45;;;;;;;2.73;0.70;;;23.50;99.90;;;;;;4994194;28;20217;-72
2021/12/30 09:13:15;;;;;;;2.87;0.77;;;23.50;99.90;;;;;;4980443;28;20185;-72
2021/12/30 09:15:43;;;;;;;0.83;0.50;;;23.40;99.90;;;;;;4997927;28;20545;-71
2021/12/30 09:18:11;;;;;;;2.60;0.50;;;23.30;99.90;;;;;;4980201;28;20181;-71
2021/12/30 09:20:40;;;;;;;2.70;0.90;;;23.20;99.90;;;;;;4997868;28;20201;-71
2021/12/30 09:23:09;;;;;;;2.80;0.80;;;23.20;99.90;;;;;;4997688;28;20626;-71
2021/12/30 09:25:39;;;;;;;3.33;0.60;;;23.10;99.90;;;;;;4997840;28;20182;-71
2021/12/30 09:28:11;;;;;;;4.73;0.90;;;23.10;99.90;;;;;;4997667;28;20186;-71
2021/12/30 09:30:40;;;;;;;2.90;0.70;;;23.00;99.90;;;;;;4997505;28;20246;-72
2021/12/30 09:33:08;;;;;;;1.77;0.60;;;22.90;99.90;;;;;;4997551;28;20207;-72
2021/12/30 09:35:37;;;;;;;2.63;1.00;;;22.90;99.90;;;;;;4997697;28;20189;-72
2021/12/30 09:38:04;;;;;;;1.70;0.50;;;22.90;99.90;;;;;;4997192;28;20182;-72
2021/12/30 09:40:32;;;;;;;3.60;0.73;;;22.80;99.90;;;;;;4997575;28;20238;-72
2021/12/30 09:43:04;;;;;;;2.73;0.80;;;22.80;99.90;;;;;;4997465;28;20177;-71
2021/12/30 09:45:38;;;;;;;0.80;0.60;;;22.80;99.90;;;;;;4997467;28;20190;-72
2021/12/30 09:48:09;;;;;;;2.53;0.73;;;22.70;99.90;;;;;;4997843;28;20183;-71
2021/12/30 09:50:43;;;;;;;1.70;0.60;;;22.70;99.90;;;;;;4997208;28;20694;-72
2021/12/30 09:53:11;;;;;;;3.13;0.80;;;22.60;99.90;;;;;;4997132;28;20210;-72
2021/12/30 09:55:39;;;;;;;2.30;1.07;;;22.50;99.90;;;;;;4979756;28;20189;-71
2021/12/30 09:58:08;;;;;;;1.37;0.63;;;22.50;99.90;;;;;;4997165;28;20185;-72
2021/12/30 10:00:37;;;;;;;7.40;1.03;;;22.40;99.90;;;;;;4996810;28;20178;-71
2021/12/30 10:03:05;;;;;;;3.13;0.70;;;22.40;99.90;;;;;;4997107;28;20241;-72
2021/12/30 10:05:37;;;;;;;3.20;0.67;;;22.30;99.90;;;;;;4997192;28;20175;-72
2021/12/30 10:08:26;;;;;;;3.30;0.80;;;22.30;99.90;;;;;;4997083;28;20253;-71
2021/12/30 10:10:57;;;;;;;2.67;0.70;;;22.20;99.90;;;;;;4996981;28;20222;-72
2021/12/30 10:13:30;;;;;;;3.43;0.90;;;22.20;99.90;;;;;;4996959;28;20548;-72
2021/12/30 10:16:02;;;;;;;5.30;0.70;;;22.10;99.90;;;;;;4996923;28;20266;-72
2021/12/30 10:19:05;;;;;;;3.67;0.80;;;22.00;99.90;;;;;;4996962;28;20182;-71
2021/12/30 10:21:41;;;;;;;1.83;0.80;;;22.00;99.90;;;;;;4993409;28;20177;-70
2021/12/30 10:24:12;;;;;;;4.93;1.03;;;22.00;99.90;;;;;;4989677;28;20600;-69
2021/12/30 10:26:52;;;;;;;3.17;1.00;;;21.90;99.90;;;;;;4987533;28;20178;-70
2021/12/30 10:29:21;;;;;;;2.77;0.77;;;21.80;99.90;;;;;;4997461;28;20258;-69
2021/12/30 10:31:50;;;;;;;2.77;0.77;;;21.80;99.90;;;;;;4987743;28;20235;-70
2021/12/30 10:34:18;;;;;;;1.40;0.60;;;21.80;99.90;;;;;;5007351;28;20188;-70
2021/12/30 10:36:49;;;;;;;5.20;0.90;;;21.70;99.90;;;;;;5015764;28;20203;-70
2021/12/30 10:39:21;;;;;;;6.40;1.00;;;21.80;99.90;;;;;;5012636;28;20186;-70
2021/12/30 10:42:16;;;;;;;3.17;1.00;;;21.80;99.90;;;;;;5004930;28;20189;-70
2021/12/30 10:44:59;;;;;;;1.70;0.70;;;21.90;99.90;;;;;;5006923;28;20259;-70
2021/12/30 10:47:30;;;;;;;8.20;1.30;;;21.80;99.90;;;;;;5012171;28;20232;-70
2021/12/30 10:50:07;;;;;;;3.03;1.07;;;21.70;99.90;;;;;;5001031;28;20202;-70
2021/12/30 10:52:46;;;;;;;1.43;0.70;;;21.80;99.90;;;;;;5007997;28;20191;-70
2021/12/30 10:55:15;;;;;;;3.77;0.70;;;21.70;99.90;;;;;;4995865;28;20182;-70
2021/12/30 10:57:43;;;;;;;4.77;0.90;;;21.60;99.90;;;;;;4995847;28;20225;-70
2021/12/30 11:00:23;;;;;;;3.83;0.97;;;21.60;99.90;;;;;;4995776;28;20640;-68
2021/12/30 11:02:51;;;;;;;3.60;0.80;;;21.60;99.90;;;;;;5003882;28;20268;-69
2021/12/30 11:05:18;;;;;;;5.17;0.90;;;21.50;99.90;;;;;;5015310;28;20182;-69
2021/12/30 11:07:53;;;;;;;4.60;1.03;;;21.40;99.90;;;;;;5015430;28;20409;-68
2021/12/30 11:10:33;;;;;;;6.10;1.00;;;21.40;99.90;;;;;;4997487;28;20214;-69
2021/12/30 11:13:14;;;;;;;5.97;1.60;;;21.30;99.90;;;;;;5005522;28;20204;-69
2021/12/30 11:15:42;;;;;;;3.47;0.80;;;21.20;99.90;;;;;;4995520;28;20184;-69
2021/12/30 11:18:12;;;;;;;3.77;1.00;;;21.20;99.90;;;;;;4996411;28;20196;-69
2021/12/30 11:20:43;;;;;;;2.90;0.93;;;21.20;99.90;;;;;;4995371;28;20627;-68
2021/12/30 11:23:12;;;;;;;6.07;1.00;;;21.20;99.90;;;;;;5005700;28;20187;-69
2021/12/30 11:25:41;;;;;;;2.67;1.07;;;21.10;99.90;;;;;;4995356;28;20179;-70
2021/12/30 11:28:08;;;;;;;1.10;0.57;;;21.10;99.90;;;;;;4995259;28;20182;-70
2021/12/30 11:30:36;;;;;;;4.83;0.70;;;21.10;99.90;;;;;;4994968;28;20234;-70
2021/12/30 11:33:04;;;;;;;4.40;1.30;;;21.10;99.90;;;;;;5007520;28;20213;-69
2021/12/30 11:35:32;;;;;;;1.57;0.70;;;21.10;99.90;;;;;;5007195;28;20190;-68
2021/12/30 11:38:01;;;;;;;3.40;0.60;;;21.00;99.90;;;;;;5003980;28;20291;-69
2021/12/30 11:40:29;;;;;;;3.33;0.70;;;21.00;99.90;;;;;;5003929;28;20198;-69
2021/12/30 11:43:09;;;;;;;2.07;0.90;;;21.10;99.90;;;;;;5002554;28;20183;-68
2021/12/30 11:45:38;;;;;;;3.13;0.67;;;21.00;99.90;;;;;;5004267;28;20568;-69
2021/12/30 11:48:21;;;;;;;1.80;0.77;;;21.00;99.90;;;;;;5005094;28;20548;-69
2021/12/30 11:51:01;;;;;;;5.83;1.00;;;21.00;99.90;;;;;;5008559;28;20675;-69
2021/12/30 11:53:29;;;;;;;2.47;0.87;;;20.90;99.90;;;;;;5014302;28;20184;-69
2021/12/30 11:56:01;;;;;;;2.40;0.60;;;20.80;99.90;;;;;;5014595;28;20199;-69
2021/12/30 11:58:36;;;;;;;4.93;1.00;;;20.80;99.90;;;;;;5014394;28;20174;-69
2021/12/30 12:01:13;;;;;;;5.77;1.30;;;20.80;99.90;;;;;;5014456;28;20173;-69
2021/12/30 12:03:56;;;;;;;2.70;0.70;;;20.70;99.90;;;;;;4995020;28;20182;-69
2021/12/30 12:06:31;;;;;;;5.67;0.97;;;20.70;99.90;;;;;;4994475;28;20253;-70
2021/12/30 12:09:16;;;;;;;3.83;1.17;;;20.60;99.90;;;;;;5001360;28;20549;-70
2021/12/30 12:11:57;;;;;;;8.33;0.90;;;20.70;99.90;;;;;;5012515;28;20248;-70
2021/12/30 12:14:27;;;;;;;2.80;0.90;;;20.70;99.90;;;;;;5013820;28;20594;-70
2021/12/30 12:16:59;;;;;;;4.37;1.23;;;20.60;99.90;;;;;;4996432;28;20588;-71
2021/12/30 12:19:50;;;;;;;4.20;1.00;;;20.60;99.90;;;;;;5014052;28;20274;-71
2021/12/30 12:22:21;;;;;;;4.77;0.97;;;20.50;99.90;;;;;;5005580;28;20233;-70
2021/12/30 12:25:12;;;;;;;3.20;1.20;;;20.50;99.90;;;;;;4994783;28;20172;-72
2021/12/30 12:27:49;;;;;;;1.83;0.70;;;20.60;99.90;;;;;;4994192;28;20193;-70
2021/12/30 12:30:34;;;;;;;2.90;0.80;;;20.50;99.90;;;;;;4993803;28;20239;-70
2021/12/30 12:33:29;;;;;;;2.00;1.10;;;20.50;99.90;;;;;;5007782;28;20645;-70
2021/12/30 12:35:57;;;;;;;3.50;1.23;;;20.50;99.90;;;;;;5013938;28;20204;-71
2021/12/30 12:38:45;;;;;;;8.60;0.97;;;20.40;99.90;;;;;;5013744;28;20187;-70
2021/12/30 12:41:29;;;;;;;1.83;0.80;;;20.40;99.90;;;;;;5014261;28;20539;-70
2021/12/30 12:44:07;;;;;;;4.03;1.07;;;20.30;99.90;;;;;;4994565;28;20195;-70
2021/12/30 12:46:53;;;;;;;6.60;1.10;;;20.30;99.90;;;;;;4993844;28;20230;-70
2021/12/30 12:49:33;;;;;;;3.17;0.87;;;20.20;99.90;;;;;;5000196;28;20188;-71
2021/12/30 12:52:04;;;;;;;3.53;1.10;;;20.00;99.90;;;;;;5011100;28;20220;-70
2021/12/30 12:54:41;;;;;;;4.40;0.83;;;20.00;99.90;;;;;;4994011;28;20189;-70
2021/12/30 12:57:16;;;;;;;3.40;0.90;;;19.90;99.90;;;;;;4994111;28;20559;-70
2021/12/30 12:59:44;;;;;;;4.67;1.10;;;19.80;99.90;;;;;;5000552;28;20187;-70
2021/12/30 13:02:14;;;;;;;3.17;1.03;;;19.70;99.90;;;;;;4997241;28;20557;-70
2021/12/30 13:04:43;;;;;;;3.93;0.87;;;19.70;99.90;;;;;;4980275;28;20189;-70
2021/12/30 13:07:15;;;;;;;4.57;1.03;;;19.60;99.90;;;;;;5007305;28;20189;-70
2021/12/30 13:09:45;;;;;;;2.90;0.83;;;19.60;99.90;;;;;;5008078;28;20177;-71
2021/12/30 13:12:14;;;;;;;6.63;1.30;;;19.60;99.90;;;;;;4997782;28;20181;-70